Livingstonville, New York
Current Conditions -  °F | °C
As of 6:51 PM on Thursday 27 Nov 2014 (Local Time) from KALB Reporting Station
Light Snow Light Snow  
Wind Chill: 29°   Ceiling: 2300
Heat Index: 29°   Visibility: 4mi
Dew Point: 26°   Wind: 0mph
Humidity: 89%   Direction: NA
Pressure: 30.04"   Gusts: NA
Location:  42.5337°N, 74.3385°W
Report Text: KALB 272351Z 00000KT 4SM -SN BR FEW008 BKN023 OVC035 M02/M03 A3004 RMK AO2 SLP174 4/007 P0001 60002 T10171033 10000 21017 51004
Loading
Personal Weather Stations






























Interactive Weather Map New forecast layout! Learn more

10-Day Weather Forecast

Advertisements
Track Severe Weather on mobile